Bluefin — WDE9397 — position and weather

sailwx.info

Track history (hours):
 
Tides and Currents Weather Stations Pressure Air Temp Water Temp Dewpoint Dewpoint Depression Visibility Wind Speed Wind Dir Waves Ship Positions

Bluefin

Owner: Penn Maritime Inc., SEATTLE, WA. More information available from US FCC via Universal Licensing System and Coast Guard Vessel Documentation Center.

Last reported at 2014-Nov-28 09:33 UTC. Time now 2014-Nov-28 21:42 UTC.
Position N 40°38' W 074°12'.

Length 166 m; draft 6.6 m.

Type: Towing. MMSI: 367416750.

Date/timePositionNaut miles runAvg speedWind from/ knotsBaromVisibWave heightAir tempDewpointWater temp
2014-Nov-28 09:33N 40°38' W 074°12'7 7.0
2014-Nov-28 08:34N 40°40' W 074°03'0 0.3
2014-Nov-28 07:31N 40°40' W 074°02'0 0.1
2014-Nov-28 06:31N 40°40' W 074°02'0 0.0
2014-Nov-28 05:31N 40°40' W 074°02'0 0.1
2014-Nov-28 04:31N 40°40' W 074°02'0 0.0
2014-Nov-28 03:31N 40°40' W 074°02'0 0.0
2014-Nov-28 02:31N 40°40' W 074°02'0 0.0
2014-Nov-28 01:31N 40°40' W 074°02'0 0.0
2014-Nov-28 00:31N 40°40' W 074°03'0 0.0
2014-Nov-27 23:31N 40°40' W 074°03'0 0.0
2014-Nov-27 22:31N 40°40' W 074°03'0 0.0
2014-Nov-27 21:31N 40°40' W 074°03'0 0.0
2014-Nov-27 20:31N 40°40' W 074°02'0 0.0
2014-Nov-27 19:31N 40°40' W 074°03'0 0.1
2014-Nov-27 18:31N 40°40' W 074°02'0 0.1
2014-Nov-27 17:31N 40°40' W 074°02'0 0.0
2014-Nov-27 16:31N 40°40' W 074°02'0 0.0
2014-Nov-27 15:31N 40°40' W 074°02'0 0.1
2014-Nov-27 14:31N 40°40' W 074°03'0 0.0
2014-Nov-27 13:31N 40°40' W 074°02'0 0.0
2014-Nov-27 12:28N 40°40' W 074°03'0 0.0
2014-Nov-27 11:31N 40°40' W 074°03'0 0.0
2014-Nov-27 10:31N 40°40' W 074°03'0 0.0
2014-Nov-27 09:31N 40°40' W 074°02'0 0.0
2014-Nov-27 08:31N 40°40' W 074°02'0 0.0
2014-Nov-27 07:31N 40°40' W 074°02'0 0.0
2014-Nov-27 06:31N 40°40' W 074°02'0 0.1
2014-Nov-27 05:31N 40°40' W 074°02'1 1.3
2014-Nov-27 04:34N 40°39' W 074°04'1 1.2
2014-Nov-27 03:31N 40°39' W 074°05'0 0.0
2014-Nov-27 02:31N 40°39' W 074°05'0 0.0
2014-Nov-27 01:31N 40°39' W 074°05'0 0.0
2014-Nov-27 00:31N 40°39' W 074°05'0 0.0
2014-Nov-26 23:31N 40°39' W 074°05'0 0.0
2014-Nov-26 22:31N 40°39' W 074°05'0 0.0
2014-Nov-26 21:31N 40°39' W 074°05'0 0.0
2014-Nov-26 20:31N 40°39' W 074°05'0 0.0
2014-Nov-26 19:31N 40°39' W 074°05'0 0.0
2014-Nov-26 18:31N 40°39' W 074°05'0 0.0
2014-Nov-26 17:31N 40°39' W 074°05'0 0.0
2014-Nov-26 16:31N 40°39' W 074°05'0 0.0
2014-Nov-26 15:31N 40°39' W 074°05'0 0.0
2014-Nov-26 14:31N 40°39' W 074°05'0 0.0
2014-Nov-26 13:31N 40°39' W 074°05'0 0.0
2014-Nov-26 12:31N 40°39' W 074°05'0 0.0
2014-Nov-26 11:31N 40°39' W 074°05'0 0.0
2014-Nov-26 10:31N 40°39' W 074°05'0 0.0
2014-Nov-26 09:31N 40°39' W 074°05'0 0.0
2014-Nov-26 08:31N 40°39' W 074°05'0 0.0
2014-Nov-26 07:31N 40°39' W 074°05'0 0.0
2014-Nov-26 06:31N 40°39' W 074°05'0 0.0
2014-Nov-26 05:31N 40°39' W 074°05'0 0.0
2014-Nov-26 04:31N 40°39' W 074°05'0 0.1
2014-Nov-26 03:31N 40°39' W 074°05'2 2.1
2014-Nov-26 02:32N 40°40' W 074°02'0 0.0
2014-Nov-26 01:32N 40°40' W 074°02'0 0.1
2014-Nov-26 00:32N 40°40' W 074°03'0 0.1
2014-Nov-25 23:32N 40°40' W 074°03'0 0.0
2014-Nov-25 22:32N 40°40' W 074°03'0 0.0
2014-Nov-25 21:32N 40°40' W 074°03'0 0.0
2014-Nov-25 20:32N 40°40' W 074°03'0 0.0
2014-Nov-25 19:32N 40°40' W 074°03'0 0.0
2014-Nov-25 18:32N 40°40' W 074°03'0 0.1
2014-Nov-25 17:32N 40°40' W 074°02'0 0.1
2014-Nov-25 16:32N 40°40' W 074°02'0 0.0
2014-Nov-25 15:32N 40°40' W 074°02'0 0.0
2014-Nov-25 14:32N 40°40' W 074°02'0 0.0
2014-Nov-25 13:32N 40°40' W 074°02'0 0.0
2014-Nov-25 12:32N 40°40' W 074°02'0 0.1
2014-Nov-25 11:32N 40°40' W 074°02'0 0.0
2014-Nov-25 10:32N 40°40' W 074°03'0 0.0
2014-Nov-25 09:32N 40°40' W 074°03'0 0.0
2014-Nov-25 08:32N 40°40' W 074°03'0 0.0
2014-Nov-25 07:32N 40°40' W 074°03'0 0.0
2014-Nov-25 06:26N 40°40' W 074°03'0 0.1
2014-Nov-25 05:33N 40°40' W 074°03'6 5.8
2014-Nov-25 04:33N 40°39' W 074°10'2 0.1
2014-Nov-24 04:31N 40°38' W 074°12'0 0.0
2014-Nov-24 03:22N 40°38' W 074°12'0 0.0
2014-Nov-24 02:25N 40°38' W 074°12'0 0.0
2014-Nov-24 01:22N 40°38' W 074°12'0 0.0
2014-Nov-24 00:28N 40°38' W 074°12'0 0.0
2014-Nov-23 23:28N 40°38' W 074°12'0 0.0
2014-Nov-23 21:31N 40°38' W 074°12'4 4.2
2014-Nov-23 20:33N 40°39' W 074°07'3 3.3
2014-Nov-23 19:33N 40°39' W 074°03'0 0.0
2014-Nov-23 18:33N 40°39' W 074°03'0 0.0
2014-Nov-23 17:33N 40°39' W 074°03'0 0.0
2014-Nov-23 16:34N 40°39' W 074°03'0 0.1
2014-Nov-23 15:33N 40°39' W 074°03'0 0.0
2014-Nov-23 14:33N 40°39' W 074°03'1 0.9
2014-Nov-23 13:33N 40°39' W 074°04'1 1.0
2014-Nov-23 12:33N 40°39' W 074°05'0 0.0
2014-Nov-23 11:33N 40°39' W 074°05'0 0.0
2014-Nov-23 10:33N 40°39' W 074°05'0 0.0
2014-Nov-23 09:33N 40°39' W 074°05'0 0.0
2014-Nov-23 08:33N 40°39' W 074°05'0 0.0
2014-Nov-23 07:33N 40°39' W 074°05'0 0.0
2014-Nov-23 06:33N 40°39' W 074°05'0 0.0
2014-Nov-23 05:33N 40°39' W 074°05'0 0.0
2014-Nov-23 04:33N 40°39' W 074°05'0 0.0
2014-Nov-23 03:33N 40°39' W 074°05'0 0.0
2014-Nov-23 02:33N 40°39' W 074°05'0 0.0
2014-Nov-23 01:33N 40°39' W 074°05'0 0.0
2014-Nov-23 00:33N 40°39' W 074°05'0 0.0
2014-Nov-22 23:33N 40°39' W 074°05'0 0.0
2014-Nov-22 22:33N 40°39' W 074°05'0 0.0
2014-Nov-22 21:33N 40°39' W 074°05'0 0.0
2014-Nov-22 20:33N 40°39' W 074°05'0 0.0
2014-Nov-22 19:33N 40°39' W 074°05'0 0.0
2014-Nov-22 18:33N 40°39' W 074°05'0 0.0
2014-Nov-22 17:33N 40°39' W 074°05'0 0.0
2014-Nov-22 16:33N 40°39' W 074°05'0 0.0
2014-Nov-22 15:33N 40°39' W 074°05'3 2.9
2014-Nov-22 14:33N 40°39' W 074°09'3 2.9
2014-Nov-22 13:33N 40°39' W 074°05'0 0.0
2014-Nov-22 12:33N 40°39' W 074°05'0 0.0
2014-Nov-22 11:33N 40°39' W 074°05'0 0.0
2014-Nov-22 10:33N 40°39' W 074°05'0 0.0
2014-Nov-22 09:33N 40°39' W 074°05'0 0.0
2014-Nov-22 08:33N 40°39' W 074°05'0 0.0
2014-Nov-22 07:33N 40°39' W 074°05'0 0.0
2014-Nov-22 06:33N 40°39' W 074°05'0 0.0
2014-Nov-22 05:33N 40°39' W 074°05'4 3.7
2014-Nov-22 04:33N 40°39' W 074°10'0 0.0
2014-Nov-22 03:33N 40°39' W 074°10'0 0.0
2014-Nov-22 02:33N 40°39' W 074°10'0 0.0
2014-Nov-22 01:33N 40°39' W 074°10'0 0.0
2014-Nov-22 00:33N 40°39' W 074°10'1 1.4
2014-Nov-21 23:33N 40°39' W 074°08'2 2.4
2014-Nov-21 22:33N 40°39' W 074°05'0 0.0
2014-Nov-21 21:33N 40°39' W 074°05'0 0.0
2014-Nov-21 20:34N 40°39' W 074°05'0 0.0
2014-Nov-21 19:33N 40°39' W 074°05'1 1.2
2014-Nov-21 18:33N 40°39' W 074°04'1 0.9
2014-Nov-21 17:33N 40°39' W 074°03'0 0.0
2014-Nov-21 16:33N 40°39' W 074°03'0 0.0
2014-Nov-21 15:33N 40°39' W 074°03'0 0.0
2014-Nov-21 14:33N 40°39' W 074°03'0 0.1
2014-Nov-21 13:33N 40°39' W 074°02'0 0.1
2014-Nov-21 12:33N 40°39' W 074°02'0 0.0
2014-Nov-21 11:33N 40°39' W 074°02'0 0.0
2014-Nov-21 10:33N 40°39' W 074°02'0 0.0
2014-Nov-21 09:33N 40°39' W 074°02'0 0.0
2014-Nov-21 08:33N 40°39' W 074°02'0 0.2
2014-Nov-21 07:34N 40°39' W 074°03'0 0.0
2014-Nov-21 06:33N 40°39' W 074°03'0 0.0
2014-Nov-21 05:33N 40°39' W 074°03'0 0.0
2014-Nov-21 04:33N 40°39' W 074°03'0 0.0
2014-Nov-21 03:33N 40°39' W 074°03'2 1.8
2014-Nov-21 02:34N 40°39' W 074°05'6 5.7
2014-Nov-21 01:33N 40°38' W 074°12'0 0.0
2014-Nov-20 14:11N 40°38' W 074°12'0 0.0
2014-Nov-20 13:29N 40°38' W 074°12'0 0.0
2014-Nov-20 12:33N 40°38' W 074°12'0 0.0
2014-Nov-20 11:30N 40°38' W 074°12'0 0.0
2014-Nov-20 10:23N 40°38' W 074°12'0 0.0
2014-Nov-19 19:23N 40°38' W 074°12'0 0.5
2014-Nov-19 18:33N 40°38' W 074°12'0 0.0
2014-Nov-19 17:33N 40°38' W 074°12'1 1.4
2014-Nov-19 16:33N 40°39' W 074°11'6 6.4
2014-Nov-19 15:34N 40°40' W 074°03'0 0.2
2014-Nov-19 14:33N 40°40' W 074°02'0 0.1
2014-Nov-19 13:33N 40°40' W 074°02'0 0.5
2014-Nov-19 12:33N 40°40' W 074°03'10 9.7
2014-Nov-19 11:33N 40°31' W 073°58'3210.1
2014-Nov-19 08:26N 39°59' W 073°56'1010.7
2014-Nov-19 07:33N 39°50' W 073°57'1110.8
2014-Nov-19 06:33N 39°40' W 074°02'  
Track history (hours):
 
Tides and Currents Weather Stations Pressure Air Temp Water Temp Dewpoint Dewpoint Depression Visibility Wind Speed Wind Dir Waves Ship Positions

Bluefin

Owner: Penn Maritime Inc., SEATTLE, WA. More information available from US FCC via Universal Licensing System and Coast Guard Vessel Documentation Center.

Last reported at 2014-Nov-28 09:33 UTC. Time now 2014-Nov-28 21:42 UTC.
Position N 40°38' W 074°12'.

Length 166 m; draft 6.6 m.

Type: Towing. MMSI: 367416750.

Date/timePositionNaut miles runAvg speedWind from/ knotsBaromVisibWave heightAir tempDewpointWater temp
2014-Nov-28 09:33N 40°38' W 074°12'7 7.0
2014-Nov-28 08:34N 40°40' W 074°03'0 0.3
2014-Nov-28 07:31N 40°40' W 074°02'0 0.1
2014-Nov-28 06:31N 40°40' W 074°02'0 0.0
2014-Nov-28 05:31N 40°40' W 074°02'0 0.1
2014-Nov-28 04:31N 40°40' W 074°02'0 0.0
2014-Nov-28 03:31N 40°40' W 074°02'0 0.0
2014-Nov-28 02:31N 40°40' W 074°02'0 0.0
2014-Nov-28 01:31N 40°40' W 074°02'0 0.0
2014-Nov-28 00:31N 40°40' W 074°03'0 0.0
2014-Nov-27 23:31N 40°40' W 074°03'0 0.0
2014-Nov-27 22:31N 40°40' W 074°03'0 0.0
2014-Nov-27 21:31N 40°40' W 074°03'0 0.0
2014-Nov-27 20:31N 40°40' W 074°02'0 0.0
2014-Nov-27 19:31N 40°40' W 074°03'0 0.1
2014-Nov-27 18:31N 40°40' W 074°02'0 0.1
2014-Nov-27 17:31N 40°40' W 074°02'0 0.0
2014-Nov-27 16:31N 40°40' W 074°02'0 0.0
2014-Nov-27 15:31N 40°40' W 074°02'0 0.1
2014-Nov-27 14:31N 40°40' W 074°03'0 0.0
2014-Nov-27 13:31N 40°40' W 074°02'0 0.0
2014-Nov-27 12:28N 40°40' W 074°03'0 0.0
2014-Nov-27 11:31N 40°40' W 074°03'0 0.0
2014-Nov-27 10:31N 40°40' W 074°03'0 0.0
2014-Nov-27 09:31N 40°40' W 074°02'0 0.0
2014-Nov-27 08:31N 40°40' W 074°02'0 0.0
2014-Nov-27 07:31N 40°40' W 074°02'0 0.0
2014-Nov-27 06:31N 40°40' W 074°02'0 0.1
2014-Nov-27 05:31N 40°40' W 074°02'1 1.3
2014-Nov-27 04:34N 40°39' W 074°04'1 1.2
2014-Nov-27 03:31N 40°39' W 074°05'0 0.0
2014-Nov-27 02:31N 40°39' W 074°05'0 0.0
2014-Nov-27 01:31N 40°39' W 074°05'0 0.0
2014-Nov-27 00:31N 40°39' W 074°05'0 0.0
2014-Nov-26 23:31N 40°39' W 074°05'0 0.0
2014-Nov-26 22:31N 40°39' W 074°05'0 0.0
2014-Nov-26 21:31N 40°39' W 074°05'0 0.0
2014-Nov-26 20:31N 40°39' W 074°05'0 0.0
2014-Nov-26 19:31N 40°39' W 074°05'0 0.0
2014-Nov-26 18:31N 40°39' W 074°05'0 0.0
2014-Nov-26 17:31N 40°39' W 074°05'0 0.0
2014-Nov-26 16:31N 40°39' W 074°05'0 0.0
2014-Nov-26 15:31N 40°39' W 074°05'0 0.0
2014-Nov-26 14:31N 40°39' W 074°05'0 0.0
2014-Nov-26 13:31N 40°39' W 074°05'0 0.0
2014-Nov-26 12:31N 40°39' W 074°05'0 0.0
2014-Nov-26 11:31N 40°39' W 074°05'0 0.0
2014-Nov-26 10:31N 40°39' W 074°05'0 0.0
2014-Nov-26 09:31N 40°39' W 074°05'0 0.0
2014-Nov-26 08:31N 40°39' W 074°05'0 0.0
2014-Nov-26 07:31N 40°39' W 074°05'0 0.0
2014-Nov-26 06:31N 40°39' W 074°05'0 0.0
2014-Nov-26 05:31N 40°39' W 074°05'0 0.0
2014-Nov-26 04:31N 40°39' W 074°05'0 0.1
2014-Nov-26 03:31N 40°39' W 074°05'2 2.1
2014-Nov-26 02:32N 40°40' W 074°02'0 0.0
2014-Nov-26 01:32N 40°40' W 074°02'0 0.1
2014-Nov-26 00:32N 40°40' W 074°03'0 0.1
2014-Nov-25 23:32N 40°40' W 074°03'0 0.0
2014-Nov-25 22:32N 40°40' W 074°03'0 0.0
2014-Nov-25 21:32N 40°40' W 074°03'0 0.0
2014-Nov-25 20:32N 40°40' W 074°03'0 0.0
2014-Nov-25 19:32N 40°40' W 074°03'0 0.0
2014-Nov-25 18:32N 40°40' W 074°03'0 0.1
2014-Nov-25 17:32N 40°40' W 074°02'0 0.1
2014-Nov-25 16:32N 40°40' W 074°02'0 0.0
2014-Nov-25 15:32N 40°40' W 074°02'0 0.0
2014-Nov-25 14:32N 40°40' W 074°02'0 0.0
2014-Nov-25 13:32N 40°40' W 074°02'0 0.0
2014-Nov-25 12:32N 40°40' W 074°02'0 0.1
2014-Nov-25 11:32N 40°40' W 074°02'0 0.0
2014-Nov-25 10:32N 40°40' W 074°03'0 0.0
2014-Nov-25 09:32N 40°40' W 074°03'0 0.0
2014-Nov-25 08:32N 40°40' W 074°03'0 0.0
2014-Nov-25 07:32N 40°40' W 074°03'0 0.0
2014-Nov-25 06:26N 40°40' W 074°03'0 0.1
2014-Nov-25 05:33N 40°40' W 074°03'6 5.8
2014-Nov-25 04:33N 40°39' W 074°10'2 0.1
2014-Nov-24 04:31N 40°38' W 074°12'0 0.0
2014-Nov-24 03:22N 40°38' W 074°12'0 0.0
2014-Nov-24 02:25N 40°38' W 074°12'0 0.0
2014-Nov-24 01:22N 40°38' W 074°12'0 0.0
2014-Nov-24 00:28N 40°38' W 074°12'0 0.0
2014-Nov-23 23:28N 40°38' W 074°12'0 0.0
2014-Nov-23 21:31N 40°38' W 074°12'4 4.2
2014-Nov-23 20:33N 40°39' W 074°07'3 3.3
2014-Nov-23 19:33N 40°39' W 074°03'0 0.0
2014-Nov-23 18:33N 40°39' W 074°03'0 0.0
2014-Nov-23 17:33N 40°39' W 074°03'0 0.0
2014-Nov-23 16:34N 40°39' W 074°03'0 0.1
2014-Nov-23 15:33N 40°39' W 074°03'0 0.0
2014-Nov-23 14:33N 40°39' W 074°03'1 0.9
2014-Nov-23 13:33N 40°39' W 074°04'1 1.0
2014-Nov-23 12:33N 40°39' W 074°05'0 0.0
2014-Nov-23 11:33N 40°39' W 074°05'0 0.0
2014-Nov-23 10:33N 40°39' W 074°05'0 0.0
2014-Nov-23 09:33N 40°39' W 074°05'0 0.0
2014-Nov-23 08:33N 40°39' W 074°05'0 0.0
2014-Nov-23 07:33N 40°39' W 074°05'0 0.0
2014-Nov-23 06:33N 40°39' W 074°05'0 0.0
2014-Nov-23 05:33N 40°39' W 074°05'0 0.0
2014-Nov-23 04:33N 40°39' W 074°05'0 0.0
2014-Nov-23 03:33N 40°39' W 074°05'0 0.0
2014-Nov-23 02:33N 40°39' W 074°05'0 0.0
2014-Nov-23 01:33N 40°39' W 074°05'0 0.0
2014-Nov-23 00:33N 40°39' W 074°05'0 0.0
2014-Nov-22 23:33N 40°39' W 074°05'0 0.0
2014-Nov-22 22:33N 40°39' W 074°05'0 0.0
2014-Nov-22 21:33N 40°39' W 074°05'0 0.0
2014-Nov-22 20:33N 40°39' W 074°05'0 0.0
2014-Nov-22 19:33N 40°39' W 074°05'0 0.0
2014-Nov-22 18:33N 40°39' W 074°05'0 0.0
2014-Nov-22 17:33N 40°39' W 074°05'0 0.0
2014-Nov-22 16:33N 40°39' W 074°05'0 0.0
2014-Nov-22 15:33N 40°39' W 074°05'3 2.9
2014-Nov-22 14:33N 40°39' W 074°09'3 2.9
2014-Nov-22 13:33N 40°39' W 074°05'0 0.0
2014-Nov-22 12:33N 40°39' W 074°05'0 0.0
2014-Nov-22 11:33N 40°39' W 074°05'0 0.0
2014-Nov-22 10:33N 40°39' W 074°05'0 0.0
2014-Nov-22 09:33N 40°39' W 074°05'0 0.0
2014-Nov-22 08:33N 40°39' W 074°05'0 0.0
2014-Nov-22 07:33N 40°39' W 074°05'0 0.0
2014-Nov-22 06:33N 40°39' W 074°05'0 0.0
2014-Nov-22 05:33N 40°39' W 074°05'4 3.7
2014-Nov-22 04:33N 40°39' W 074°10'0 0.0
2014-Nov-22 03:33N 40°39' W 074°10'0 0.0
2014-Nov-22 02:33N 40°39' W 074°10'0 0.0
2014-Nov-22 01:33N 40°39' W 074°10'0 0.0
2014-Nov-22 00:33N 40°39' W 074°10'1 1.4
2014-Nov-21 23:33N 40°39' W 074°08'2 2.4
2014-Nov-21 22:33N 40°39' W 074°05'0 0.0
2014-Nov-21 21:33N 40°39' W 074°05'0 0.0
2014-Nov-21 20:34N 40°39' W 074°05'0 0.0
2014-Nov-21 19:33N 40°39' W 074°05'1 1.2
2014-Nov-21 18:33N 40°39' W 074°04'1 0.9
2014-Nov-21 17:33N 40°39' W 074°03'0 0.0
2014-Nov-21 16:33N 40°39' W 074°03'0 0.0
2014-Nov-21 15:33N 40°39' W 074°03'0 0.0
2014-Nov-21 14:33N 40°39' W 074°03'0 0.1
2014-Nov-21 13:33N 40°39' W 074°02'0 0.1
2014-Nov-21 12:33N 40°39' W 074°02'0 0.0
2014-Nov-21 11:33N 40°39' W 074°02'0 0.0
2014-Nov-21 10:33N 40°39' W 074°02'0 0.0
2014-Nov-21 09:33N 40°39' W 074°02'0 0.0
2014-Nov-21 08:33N 40°39' W 074°02'0 0.2
2014-Nov-21 07:34N 40°39' W 074°03'0 0.0
2014-Nov-21 06:33N 40°39' W 074°03'0 0.0
2014-Nov-21 05:33N 40°39' W 074°03'0 0.0
2014-Nov-21 04:33N 40°39' W 074°03'0 0.0
2014-Nov-21 03:33N 40°39' W 074°03'2 1.8
2014-Nov-21 02:34N 40°39' W 074°05'6 5.7
2014-Nov-21 01:33N 40°38' W 074°12'0 0.0
2014-Nov-20 14:11N 40°38' W 074°12'0 0.0
2014-Nov-20 13:29N 40°38' W 074°12'0 0.0
2014-Nov-20 12:33N 40°38' W 074°12'0 0.0
2014-Nov-20 11:30N 40°38' W 074°12'0 0.0
2014-Nov-20 10:23N 40°38' W 074°12'0 0.0
2014-Nov-19 19:23N 40°38' W 074°12'0 0.5
2014-Nov-19 18:33N 40°38' W 074°12'0 0.0
2014-Nov-19 17:33N 40°38' W 074°12'1 1.4
2014-Nov-19 16:33N 40°39' W 074°11'6 6.4
2014-Nov-19 15:34N 40°40' W 074°03'0 0.2
2014-Nov-19 14:33N 40°40' W 074°02'0 0.1
2014-Nov-19 13:33N 40°40' W 074°02'0 0.5
2014-Nov-19 12:33N 40°40' W 074°03'10 9.7
2014-Nov-19 11:33N 40°31' W 073°58'3210.1
2014-Nov-19 08:26N 39°59' W 073°56'1010.7
2014-Nov-19 07:33N 39°50' W 073°57'1110.8
2014-Nov-19 06:33N 39°40' W 074°02'  

Dump ship's entire track history